createdAt,value
2018-09-25T00:00:33.802Z,0.00
2018-09-25T00:01:34.490Z,0.00
2018-09-25T00:02:33.780Z,0.00
2018-09-25T00:03:33.774Z,0.00
2018-09-25T00:04:33.759Z,0.00
2018-09-25T00:05:33.747Z,0.00
2018-09-25T00:06:33.740Z,0.00
2018-09-25T00:07:33.751Z,0.00
2018-09-25T00:08:33.720Z,0.00
2018-09-25T00:09:33.703Z,0.00
2018-09-25T00:10:33.694Z,0.00
2018-09-25T00:11:33.683Z,0.00
2018-09-25T00:12:33.670Z,0.00
2018-09-25T00:13:33.676Z,0.00
2018-09-25T00:14:33.648Z,0.00
2018-09-25T00:15:33.638Z,0.00
2018-09-25T00:16:33.655Z,0.00
2018-09-25T00:17:33.619Z,0.00
2018-09-25T00:18:33.607Z,0.00
2018-09-25T00:19:33.596Z,0.00
2018-09-25T00:20:33.585Z,0.00
2018-09-25T00:21:33.575Z,0.00
2018-09-25T00:22:33.582Z,0.00
2018-09-25T00:23:33.555Z,0.00
2018-09-25T00:24:33.545Z,0.00
2018-09-25T00:25:33.533Z,0.00
2018-09-25T00:26:33.519Z,0.00
2018-09-25T00:27:33.508Z,0.00
2018-09-25T00:28:33.511Z,0.00
2018-09-25T00:29:33.488Z,0.00
2018-09-25T00:30:33.475Z,0.00
2018-09-25T00:31:33.467Z,0.00
2018-09-25T00:32:33.455Z,0.00
2018-09-25T00:33:33.456Z,0.00
2018-09-25T00:34:33.453Z,0.00
2018-09-25T00:35:33.423Z,0.00
2018-09-25T00:36:33.410Z,0.00
2018-09-25T00:37:33.401Z,0.00
2018-09-25T00:38:33.388Z,0.00
2018-09-25T00:39:33.377Z,0.00
2018-09-25T00:40:33.381Z,0.00
2018-09-25T00:41:33.357Z,0.00
2018-09-25T00:42:33.347Z,0.00
2018-09-25T00:43:33.334Z,0.00
2018-09-25T00:44:33.323Z,0.00
2018-09-25T00:45:33.328Z,0.00
2018-09-25T00:46:33.306Z,0.00
2018-09-25T00:47:33.295Z,0.00
2018-09-25T00:48:33.282Z,0.00
2018-09-25T00:49:33.269Z,0.00
2018-09-25T00:50:33.297Z,0.00
2018-09-25T00:51:33.292Z,0.00
2018-09-25T00:52:33.239Z,0.00
2018-09-25T00:53:33.228Z,0.00
2018-09-25T00:54:33.219Z,0.00
2018-09-25T00:55:33.205Z,0.00
2018-09-25T00:56:33.213Z,0.00
2018-09-25T00:57:33.186Z,0.00
2018-09-25T00:58:33.172Z,0.00
2018-09-25T00:59:33.165Z,0.00
2018-09-25T01:00:33.151Z,0.00
2018-09-25T01:01:33.139Z,0.00
2018-09-25T01:02:33.141Z,0.00
2018-09-25T01:03:33.116Z,0.00
2018-09-25T01:04:33.108Z,0.00
2018-09-25T01:05:33.095Z,0.00
2018-09-25T01:06:33.099Z,0.00
2018-09-25T01:07:33.091Z,0.00
2018-09-25T01:08:33.076Z,0.00
2018-09-25T01:09:33.056Z,0.00
2018-09-25T01:10:33.046Z,0.00
2018-09-25T01:11:33.990Z,0.00
2018-09-25T01:12:33.058Z,0.00
2018-09-25T01:13:33.008Z,0.00
2018-09-25T01:14:33.000Z,0.00
2018-09-25T01:15:32.988Z,0.00
2018-09-25T01:16:32.977Z,0.00
2018-09-25T01:17:32.965Z,0.00
2018-09-25T01:18:32.995Z,0.00
2018-09-25T01:19:32.942Z,0.00
2018-09-25T01:20:32.935Z,0.00
2018-09-25T01:21:32.921Z,0.00
2018-09-25T01:22:32.912Z,0.00
2018-09-25T01:23:32.901Z,0.00
2018-09-25T01:24:32.904Z,0.00
2018-09-25T01:25:32.879Z,0.00
2018-09-25T01:26:32.867Z,0.00
2018-09-25T01:27:32.858Z,0.00
2018-09-25T01:28:32.887Z,0.00
2018-09-25T01:29:32.838Z,0.00
2018-09-25T01:30:32.823Z,0.00
2018-09-25T01:31:32.815Z,0.00
2018-09-25T01:32:32.805Z,0.00
2018-09-25T01:33:32.792Z,0.00
2018-09-25T01:34:32.797Z,0.00
2018-09-25T01:35:32.772Z,0.00
2018-09-25T01:36:32.761Z,0.00
2018-09-25T01:37:32.748Z,0.00
2018-09-25T01:38:32.738Z,0.00
2018-09-25T01:39:32.745Z,0.00
2018-09-25T01:40:32.720Z,0.00
2018-09-25T01:41:32.705Z,0.00
2018-09-25T01:42:32.708Z,0.00
2018-09-25T01:43:32.684Z,0.00
2018-09-25T01:44:32.685Z,0.00
2018-09-25T01:45:32.663Z,0.00
2018-09-25T01:46:32.649Z,0.00
2018-09-25T01:47:32.640Z,0.00
2018-09-25T01:48:32.628Z,0.00
2018-09-25T01:49:32.642Z,0.00
2018-09-25T01:50:32.609Z,0.00
2018-09-25T01:51:32.596Z,0.00
2018-09-25T01:52:32.587Z,0.00
2018-09-25T01:53:32.576Z,0.00
2018-09-25T01:54:32.563Z,0.00
2018-09-25T01:55:32.576Z,0.00
2018-09-25T01:56:32.542Z,0.00
2018-09-25T01:57:32.530Z,0.00
2018-09-25T01:58:32.520Z,0.00
2018-09-25T01:59:32.511Z,0.00
2018-09-25T02:00:32.501Z,0.00
2018-09-25T02:01:32.500Z,0.00
2018-09-25T02:02:32.478Z,0.00
2018-09-25T02:03:32.471Z,0.00
2018-09-25T02:04:32.458Z,0.00
2018-09-25T02:05:32.447Z,0.00
2018-09-25T02:06:32.450Z,0.00
2018-09-25T02:07:32.426Z,0.00
2018-09-25T02:08:32.429Z,0.00
2018-09-25T02:09:32.401Z,0.00
2018-09-25T02:10:32.392Z,0.00
2018-09-25T02:11:32.400Z,0.00
2018-09-25T02:12:32.372Z,0.00
2018-09-25T02:13:32.377Z,0.00
2018-09-25T02:14:32.349Z,0.00
2018-09-25T02:15:32.336Z,0.00
2018-09-25T02:16:32.979Z,0.00
2018-09-25T02:17:32.317Z,0.00
2018-09-25T02:18:32.320Z,0.00
2018-09-25T02:19:32.295Z,0.00
2018-09-25T02:20:32.292Z,0.00
2018-09-25T02:21:32.271Z,0.00
2018-09-25T02:22:32.262Z,0.00
2018-09-25T02:23:32.268Z,0.00
2018-09-25T02:24:32.239Z,0.00
2018-09-25T02:25:32.229Z,0.00
2018-09-25T02:26:32.221Z,0.00
2018-09-25T02:27:32.215Z,0.00
2018-09-25T02:28:32.211Z,0.00
2018-09-25T02:29:32.189Z,0.00
2018-09-25T02:30:32.194Z,0.00
2018-09-25T02:31:32.164Z,0.00
2018-09-25T02:32:32.153Z,0.00
2018-09-25T02:33:32.182Z,0.00
2018-09-25T02:34:32.131Z,0.00
2018-09-25T02:35:32.119Z,0.00
2018-09-25T02:36:32.112Z,0.00
2018-09-25T02:37:32.099Z,0.00
2018-09-25T02:38:32.089Z,0.00
2018-09-25T02:39:32.095Z,0.00
2018-09-25T02:40:32.065Z,0.00
2018-09-25T02:41:32.054Z,0.00
2018-09-25T02:42:32.044Z,0.00
2018-09-25T02:43:32.037Z,0.00
2018-09-25T02:44:32.041Z,0.00
2018-09-25T02:45:32.025Z,0.00
2018-09-25T02:46:32.003Z,0.00
2018-09-25T02:47:31.991Z,0.00
2018-09-25T02:48:31.982Z,0.00
2018-09-25T02:49:31.985Z,0.00
2018-09-25T02:50:31.956Z,0.00
2018-09-25T02:51:31.947Z,0.00
2018-09-25T02:52:31.950Z,0.00
2018-09-25T02:53:31.927Z,0.00
2018-09-25T02:54:31.931Z,0.00
2018-09-25T02:55:31.906Z,0.00
2018-09-25T02:56:31.891Z,0.00
2018-09-25T02:57:31.883Z,0.00
2018-09-25T02:58:31.871Z,0.00
2018-09-25T02:59:31.874Z,0.00
2018-09-25T03:00:31.861Z,0.00
2018-09-25T03:01:31.839Z,0.00
2018-09-25T03:02:31.826Z,0.00
2018-09-25T03:03:31.814Z,0.00
2018-09-25T03:04:31.806Z,0.00
2018-09-25T03:05:31.809Z,0.00
2018-09-25T03:06:31.784Z,0.00
2018-09-25T03:07:31.772Z,0.00
2018-09-25T03:08:31.760Z,0.00
2018-09-25T03:09:31.757Z,0.00
2018-09-25T03:10:31.758Z,0.00
2018-09-25T03:11:31.730Z,0.00
2018-09-25T03:12:31.720Z,0.00
2018-09-25T03:13:31.707Z,0.00
2018-09-25T03:14:31.697Z,0.00
2018-09-25T03:15:31.686Z,0.00
2018-09-25T03:16:31.691Z,0.00
2018-09-25T03:17:31.664Z,0.00
2018-09-25T03:18:31.652Z,0.00
2018-09-25T03:19:31.640Z,0.00
2018-09-25T03:20:31.644Z,0.00
2018-09-25T03:21:31.632Z,0.00
2018-09-25T03:22:31.609Z,0.00
2018-09-25T03:23:31.598Z,0.00
2018-09-25T03:24:31.591Z,0.00
2018-09-25T03:25:31.591Z,0.00
2018-09-25T03:26:31.567Z,0.00
2018-09-25T03:27:31.575Z,0.00
2018-09-25T03:28:31.558Z,0.00
2018-09-25T03:29:31.586Z,0.00
2018-09-25T03:30:31.521Z,0.00
2018-09-25T03:31:31.523Z,0.00
2018-09-25T03:32:31.514Z,0.00
2018-09-25T03:33:31.503Z,0.00
2018-09-25T03:34:31.480Z,0.00
2018-09-25T03:35:31.471Z,0.00
2018-09-25T03:36:31.454Z,0.00
2018-09-25T03:37:31.459Z,0.00
2018-09-25T03:38:31.434Z,0.00
2018-09-25T03:39:31.425Z,0.00
2018-09-25T03:40:31.411Z,0.00
2018-09-25T03:41:31.402Z,0.00
2018-09-25T03:42:31.403Z,0.00
2018-09-25T03:43:31.391Z,0.00
2018-09-25T03:44:31.367Z,0.00
2018-09-25T03:45:31.356Z,0.00
2018-09-25T03:46:31.348Z,0.00
2018-09-25T03:47:31.334Z,0.00
2018-09-25T03:48:31.339Z,0.00
2018-09-25T03:49:31.324Z,0.00
2018-09-25T03:50:31.308Z,0.00
2018-09-25T03:51:31.293Z,0.00
2018-09-25T03:52:31.299Z,0.00
2018-09-25T03:53:31.276Z,0.00
2018-09-25T03:54:31.257Z,0.00
2018-09-25T03:55:31.247Z,0.00
2018-09-25T03:56:31.234Z,0.00
2018-09-25T03:57:31.226Z,0.00
2018-09-25T03:58:31.235Z,0.00
2018-09-25T03:59:31.258Z,0.00
2018-09-25T04:00:31.194Z,0.00
2018-09-25T04:01:31.185Z,0.00
2018-09-25T04:02:31.169Z,0.00
2018-09-25T04:03:31.158Z,0.00
2018-09-25T04:04:31.160Z,0.00
2018-09-25T04:05:31.138Z,0.00
2018-09-25T04:06:31.126Z,0.00
2018-09-25T04:07:31.975Z,0.00
2018-09-25T04:08:31.126Z,0.00
2018-09-25T04:09:31.092Z,0.00
2018-09-25T04:10:31.084Z,0.00
2018-09-25T04:11:31.071Z,0.00
2018-09-25T04:12:31.061Z,0.00
2018-09-25T04:13:31.049Z,0.00
2018-09-25T04:14:31.047Z,0.00
2018-09-25T04:15:31.028Z,0.00
2018-09-25T04:16:31.017Z,0.00
2018-09-25T04:17:31.006Z,0.00
2018-09-25T04:18:30.996Z,0.00
2018-09-25T04:19:30.996Z,0.00
2018-09-25T04:20:30.973Z,0.00
2018-09-25T04:21:30.962Z,0.00
2018-09-25T04:22:30.949Z,0.00
2018-09-25T04:23:30.939Z,0.00
2018-09-25T04:24:30.955Z,0.00
2018-09-25T04:25:30.918Z,0.00
2018-09-25T04:26:30.909Z,0.00
2018-09-25T04:27:30.898Z,0.00
2018-09-25T04:28:31.087Z,0.00
2018-09-25T04:29:30.878Z,0.00
2018-09-25T04:30:30.879Z,0.00
2018-09-25T04:31:30.868Z,0.00
2018-09-25T04:32:30.842Z,0.00
2018-09-25T04:33:30.830Z,0.00
2018-09-25T04:34:30.821Z,0.00
2018-09-25T04:35:30.826Z,0.00
2018-09-25T04:36:30.811Z,0.00
2018-09-25T04:37:30.787Z,0.00
2018-09-25T04:38:30.776Z,0.00
2018-09-25T04:39:30.794Z,0.00
2018-09-25T04:40:30.794Z,0.00
2018-09-25T04:41:30.745Z,0.00
2018-09-25T04:42:30.731Z,0.00
2018-09-25T04:43:30.722Z,0.00
2018-09-25T04:44:30.711Z,0.00
2018-09-25T04:45:30.698Z,0.00
2018-09-25T04:46:30.700Z,0.00
2018-09-25T04:47:30.677Z,0.00
2018-09-25T04:48:30.666Z,0.00
2018-09-25T04:49:30.669Z,0.00
2018-09-25T04:50:30.647Z,0.00
2018-09-25T04:51:30.651Z,0.00
2018-09-25T04:52:30.624Z,0.00
2018-09-25T04:53:30.614Z,0.00
2018-09-25T04:54:30.604Z,0.00
2018-09-25T04:55:30.589Z,0.00
2018-09-25T04:56:30.594Z,0.00
2018-09-25T04:57:30.569Z,0.00
2018-09-25T04:58:30.561Z,0.00
2018-09-25T04:59:30.594Z,0.00
2018-09-25T05:00:30.535Z,0.00
2018-09-25T05:01:30.526Z,0.00
2018-09-25T05:02:30.517Z,0.00
2018-09-25T05:03:30.524Z,0.00
2018-09-25T05:04:30.491Z,0.00
2018-09-25T05:05:30.481Z,0.00
2018-09-25T05:06:30.496Z,0.00
2018-09-25T05:07:30.457Z,0.00
2018-09-25T05:08:30.464Z,0.00
2018-09-25T05:09:30.446Z,0.00
2018-09-25T05:10:30.426Z,0.00
2018-09-25T05:11:30.430Z,5.62
2018-09-25T05:12:30.404Z,5.62
2018-09-25T05:13:30.395Z,5.62
2018-09-25T05:14:30.384Z,5.62
2018-09-25T05:15:30.393Z,5.62
2018-09-25T05:16:30.363Z,5.62
2018-09-25T05:17:30.351Z,5.62
2018-09-25T05:18:30.338Z,11.25
2018-09-25T05:19:30.329Z,11.25
2018-09-25T05:20:30.317Z,11.25
2018-09-25T05:21:30.321Z,11.25
2018-09-25T05:22:30.295Z,16.88
2018-09-25T05:23:30.369Z,16.88
2018-09-25T05:24:30.273Z,16.88
2018-09-25T05:25:30.269Z,16.88
2018-09-25T05:26:30.266Z,16.88
2018-09-25T05:27:30.243Z,22.50
2018-09-25T05:28:30.229Z,22.50
2018-09-25T05:29:30.222Z,22.50
2018-09-25T05:30:30.207Z,22.50
2018-09-25T05:31:30.209Z,22.50
2018-09-25T05:32:30.206Z,22.50
2018-09-25T05:33:30.174Z,28.12
2018-09-25T05:34:30.162Z,28.12
2018-09-25T05:35:30.153Z,28.12
2018-09-25T05:36:30.143Z,33.75
2018-09-25T05:37:30.132Z,33.75
2018-09-25T05:38:30.135Z,39.38
2018-09-25T05:39:30.123Z,39.38
2018-09-25T05:40:30.096Z,33.75
2018-09-25T05:41:30.088Z,39.38
2018-09-25T05:42:30.090Z,39.38
2018-09-25T05:43:30.079Z,39.38
2018-09-25T05:44:30.065Z,45.00
2018-09-25T05:45:30.044Z,45.00
2018-09-25T05:46:30.045Z,45.00
2018-09-25T05:47:30.021Z,39.38
2018-09-25T05:48:30.220Z,50.62
2018-09-25T05:49:30.003Z,56.25
2018-09-25T05:50:29.989Z,61.88
2018-09-25T05:51:29.979Z,67.50
2018-09-25T05:52:29.966Z,73.12
2018-09-25T05:53:29.954Z,73.12
2018-09-25T05:54:29.961Z,73.12
2018-09-25T05:55:29.954Z,67.50
2018-09-25T05:56:29.921Z,67.50
2018-09-25T05:57:29.910Z,67.50
2018-09-25T05:58:29.901Z,61.88
2018-09-25T05:59:29.930Z,61.88
2018-09-25T06:00:29.879Z,73.12
2018-09-25T06:01:29.868Z,78.75
2018-09-25T06:02:29.860Z,84.38
2018-09-25T06:03:29.846Z,95.62
2018-09-25T06:04:29.835Z,95.62
2018-09-25T06:05:29.845Z,90.00
2018-09-25T06:06:29.813Z,95.62
2018-09-25T06:07:29.802Z,95.62
2018-09-25T06:08:29.791Z,101.25
2018-09-25T06:09:29.828Z,101.25
2018-09-25T06:10:29.768Z,101.25
2018-09-25T06:11:29.756Z,101.25
2018-09-25T06:12:29.745Z,106.88
2018-09-25T06:13:29.736Z,106.88
2018-09-25T06:14:29.723Z,106.88
2018-09-25T06:15:29.736Z,106.88
2018-09-25T06:16:29.705Z,106.88
2018-09-25T06:17:29.692Z,112.50
2018-09-25T06:18:29.685Z,112.50
2018-09-25T06:19:29.699Z,112.50
2018-09-25T06:20:29.659Z,123.75
2018-09-25T06:21:29.661Z,123.75
2018-09-25T06:22:29.637Z,129.38
2018-09-25T06:23:29.626Z,129.38
2018-09-25T06:24:29.613Z,129.38
2018-09-25T06:25:29.604Z,129.38
2018-09-25T06:26:29.611Z,123.75
2018-09-25T06:27:29.582Z,129.38
2018-09-25T06:28:29.571Z,129.38
2018-09-25T06:29:29.561Z,135.00
2018-09-25T06:30:29.548Z,140.62
2018-09-25T06:31:29.539Z,151.88
2018-09-25T06:32:29.540Z,151.88
2018-09-25T06:33:29.519Z,140.62
2018-09-25T06:34:29.599Z,135.00
2018-09-25T06:35:29.507Z,135.00
2018-09-25T06:36:29.482Z,129.38
2018-09-25T06:37:29.472Z,140.62
2018-09-25T06:38:29.461Z,151.88
2018-09-25T06:39:29.453Z,157.50
2018-09-25T06:40:29.454Z,157.50
2018-09-25T06:41:29.430Z,151.88
2018-09-25T06:42:29.419Z,157.50
2018-09-25T06:43:29.408Z,151.88
2018-09-25T06:44:29.441Z,163.12
2018-09-25T06:45:29.387Z,174.38
2018-09-25T06:46:29.378Z,180.00
2018-09-25T06:47:29.366Z,180.00
2018-09-25T06:48:29.358Z,174.38
2018-09-25T06:49:29.344Z,168.75
2018-09-25T06:50:29.348Z,191.25
2018-09-25T06:51:29.322Z,196.88
2018-09-25T06:52:29.311Z,174.38
2018-09-25T06:53:29.301Z,168.75
2018-09-25T06:54:29.288Z,163.12
2018-09-25T06:55:29.298Z,168.75
2018-09-25T06:56:29.268Z,174.38
2018-09-25T06:57:29.257Z,185.62
2018-09-25T06:58:29.245Z,196.88
2018-09-25T06:59:29.235Z,213.75
2018-09-25T07:00:29.223Z,247.50
2018-09-25T07:01:29.224Z,264.38
2018-09-25T07:02:29.200Z,258.75
2018-09-25T07:03:29.192Z,286.88
2018-09-25T07:04:29.179Z,275.62
2018-09-25T07:05:29.183Z,253.12
2018-09-25T07:06:29.157Z,219.38
2018-09-25T07:07:29.146Z,208.12
2018-09-25T07:08:29.157Z,208.12
2018-09-25T07:09:29.123Z,196.88
2018-09-25T07:10:29.225Z,196.88
2018-09-25T07:11:29.119Z,196.88
2018-09-25T07:12:29.092Z,208.12
2018-09-25T07:13:29.083Z,213.75
2018-09-25T07:14:29.070Z,213.75
2018-09-25T07:15:29.063Z,219.38
2018-09-25T07:16:29.063Z,219.38
2018-09-25T07:17:29.048Z,213.75
2018-09-25T07:18:29.052Z,213.75
2018-09-25T07:19:29.018Z,219.38
2018-09-25T07:20:29.007Z,225.00
2018-09-25T07:21:28.995Z,236.25
2018-09-25T07:22:28.985Z,247.50
2018-09-25T07:23:28.975Z,247.50
2018-09-25T07:24:29.021Z,247.50
2018-09-25T07:25:28.955Z,253.12
2018-09-25T07:26:28.940Z,253.12
2018-09-25T07:27:28.931Z,253.12
2018-09-25T07:28:28.918Z,258.75
2018-09-25T07:29:28.908Z,275.62
2018-09-25T07:30:28.918Z,298.12
2018-09-25T07:31:28.888Z,303.75
2018-09-25T07:32:28.894Z,303.75
2018-09-25T07:33:28.866Z,309.38
2018-09-25T07:34:28.859Z,309.38
2018-09-25T07:35:28.863Z,303.75
2018-09-25T07:36:28.853Z,303.75
2018-09-25T07:37:28.821Z,326.25
2018-09-25T07:38:28.831Z,388.12
2018-09-25T07:39:28.851Z,348.75
2018-09-25T07:40:28.792Z,309.38
2018-09-25T07:41:28.780Z,331.88
2018-09-25T07:42:28.783Z,416.25
2018-09-25T07:43:28.756Z,450.00
2018-09-25T07:44:28.767Z,489.38
2018-09-25T07:45:28.741Z,483.75
2018-09-25T07:46:28.751Z,545.62
2018-09-25T07:47:28.710Z,652.50
2018-09-25T07:48:28.702Z,703.12
2018-09-25T07:49:28.689Z,793.12
2018-09-25T07:50:28.692Z,871.88
2018-09-25T07:51:28.667Z,781.88
2018-09-25T07:52:28.656Z,579.38
2018-09-25T07:53:28.647Z,523.12
2018-09-25T07:54:28.649Z,506.25
2018-09-25T07:55:28.636Z,489.38
2018-09-25T07:56:28.613Z,489.38
2018-09-25T07:57:28.602Z,495.00
2018-09-25T07:58:28.592Z,528.75
2018-09-25T07:59:28.600Z,556.88
2018-09-25T08:00:28.568Z,568.12
2018-09-25T08:01:28.558Z,534.38
2018-09-25T08:02:28.545Z,495.00
2018-09-25T08:03:28.599Z,478.12
2018-09-25T08:04:28.525Z,472.50
2018-09-25T08:05:28.528Z,455.62
2018-09-25T08:06:28.504Z,455.62
2018-09-25T08:07:28.507Z,506.25
2018-09-25T08:08:28.482Z,596.25
2018-09-25T08:09:28.489Z,714.38
2018-09-25T08:10:28.459Z,776.25
2018-09-25T08:11:28.447Z,776.25
2018-09-25T08:12:28.439Z,720.00
2018-09-25T08:13:28.428Z,658.12
2018-09-25T08:14:28.414Z,596.25
2018-09-25T08:15:28.482Z,585.00
2018-09-25T08:16:28.392Z,601.88
2018-09-25T08:17:28.384Z,630.00
2018-09-25T08:18:28.373Z,646.88
2018-09-25T08:19:28.363Z,669.38
2018-09-25T08:20:28.365Z,708.75
2018-09-25T08:21:28.353Z,691.88
2018-09-25T08:22:28.330Z,708.75
2018-09-25T08:23:28.318Z,697.50
2018-09-25T08:24:28.325Z,675.00
2018-09-25T08:25:28.294Z,607.50
2018-09-25T08:26:28.284Z,579.38
2018-09-25T08:27:28.280Z,562.50
2018-09-25T08:28:28.268Z,568.12
2018-09-25T08:29:28.253Z,590.62
2018-09-25T08:30:28.258Z,613.12
2018-09-25T08:31:28.247Z,686.25
2018-09-25T08:32:28.219Z,753.75
2018-09-25T08:33:28.210Z,810.00
2018-09-25T08:34:28.197Z,804.38
2018-09-25T08:35:28.187Z,731.25
2018-09-25T08:36:28.179Z,630.00
2018-09-25T08:37:28.199Z,556.88
2018-09-25T08:38:28.241Z,534.38
2018-09-25T08:39:28.452Z,500.62
2018-09-25T08:40:28.144Z,489.38
2018-09-25T08:41:28.124Z,483.75
2018-09-25T08:42:28.124Z,506.25
2018-09-25T08:43:28.099Z,545.62
2018-09-25T08:44:28.086Z,590.62
2018-09-25T08:45:28.075Z,624.38
2018-09-25T08:46:28.066Z,680.62
2018-09-25T08:47:28.121Z,748.12
2018-09-25T08:48:28.043Z,1243.12
2018-09-25T08:49:28.033Z,1760.62
2018-09-25T08:50:28.023Z,2188.12
2018-09-25T08:51:28.011Z,1546.88
2018-09-25T08:52:27.997Z,1513.12
2018-09-25T08:53:28.065Z,1254.38
2018-09-25T08:54:27.976Z,1130.62
2018-09-25T08:55:27.967Z,781.88
2018-09-25T08:56:27.955Z,697.50
2018-09-25T08:57:27.944Z,635.62
2018-09-25T08:58:27.972Z,590.62
2018-09-25T08:59:27.920Z,562.50
2018-09-25T09:00:27.909Z,556.88
2018-09-25T09:01:27.917Z,585.00
2018-09-25T09:02:27.887Z,607.50
2018-09-25T09:03:27.876Z,669.38
2018-09-25T09:04:27.881Z,714.38
2018-09-25T09:05:27.902Z,725.62
2018-09-25T09:06:27.856Z,765.00
2018-09-25T09:07:27.833Z,843.75
2018-09-25T09:08:27.897Z,1051.88
2018-09-25T09:09:27.811Z,1631.25
2018-09-25T09:10:27.814Z,2300.62
2018-09-25T09:11:27.790Z,1276.88
2018-09-25T09:12:27.778Z,1726.88
2018-09-25T09:13:27.766Z,1411.88
2018-09-25T09:14:27.757Z,2154.38
2018-09-25T09:15:27.762Z,2880.00
2018-09-25T09:16:27.761Z,2745.00
2018-09-25T09:17:27.726Z,2925.00
2018-09-25T09:18:27.714Z,2649.38
2018-09-25T09:19:27.703Z,2581.88
2018-09-25T09:20:27.691Z,2694.38
2018-09-25T09:21:27.681Z,2559.38
2018-09-25T09:22:27.692Z,2520.00
2018-09-25T09:23:27.656Z,2531.25
2018-09-25T09:24:27.669Z,2773.12
2018-09-25T09:25:27.634Z,3571.88
2018-09-25T09:26:27.645Z,2981.25
2018-09-25T09:27:27.618Z,2621.25
2018-09-25T09:28:27.604Z,2812.50
2018-09-25T09:29:27.591Z,2593.12
2018-09-25T09:30:27.609Z,2255.62
2018-09-25T09:31:27.570Z,2081.25
2018-09-25T09:32:27.595Z,2587.50
2018-09-25T09:33:27.548Z,2525.62
2018-09-25T09:34:27.538Z,2615.62
2018-09-25T09:35:27.525Z,2632.50
2018-09-25T09:36:27.515Z,2593.12
2018-09-25T09:37:27.504Z,2565.00
2018-09-25T09:38:27.506Z,2587.50
2018-09-25T09:39:27.483Z,2598.75
2018-09-25T09:40:27.470Z,2604.38
2018-09-25T09:41:27.578Z,2677.50
2018-09-25T09:42:27.472Z,2610.00
2018-09-25T09:43:27.439Z,2773.12
2018-09-25T09:44:27.429Z,2818.12
2018-09-25T09:45:27.419Z,2795.62
2018-09-25T09:46:27.405Z,2857.50
2018-09-25T09:47:27.392Z,2868.75
2018-09-25T09:48:27.398Z,2643.75
2018-09-25T09:49:27.387Z,2570.62
2018-09-25T09:50:27.436Z,2660.62
2018-09-25T09:51:27.980Z,2677.50
2018-09-25T09:52:27.340Z,2677.50
2018-09-25T09:53:27.328Z,2688.75
2018-09-25T09:54:27.335Z,2677.50
2018-09-25T09:55:27.307Z,2671.88
2018-09-25T09:56:27.336Z,2469.38
2018-09-25T09:57:27.284Z,2643.75
2018-09-25T09:58:27.284Z,2626.88
2018-09-25T09:59:27.263Z,2598.75
2018-09-25T10:00:27.266Z,2655.00
2018-09-25T10:01:27.245Z,2694.38
2018-09-25T10:02:27.233Z,2711.25
2018-09-25T10:03:27.224Z,2716.88
2018-09-25T10:04:27.212Z,2683.12
2018-09-25T10:05:27.218Z,2761.88
2018-09-25T10:06:27.192Z,2795.62
2018-09-25T10:07:27.194Z,2739.38
2018-09-25T10:08:27.169Z,2649.38
2018-09-25T10:09:27.157Z,2542.50
2018-09-25T10:10:27.161Z,2542.50
2018-09-25T10:11:27.135Z,2626.88
2018-09-25T10:12:27.296Z,2491.88
2018-09-25T10:13:27.116Z,2430.00
2018-09-25T10:14:27.106Z,2503.12
2018-09-25T10:15:27.095Z,2615.62
2018-09-25T10:16:27.084Z,2480.62
2018-09-25T10:17:27.075Z,2531.25
2018-09-25T10:18:27.079Z,2047.50
2018-09-25T10:19:27.054Z,2666.25
2018-09-25T10:20:27.043Z,2604.38
2018-09-25T10:21:27.033Z,2902.50
2018-09-25T10:22:27.040Z,2818.12
2018-09-25T10:23:27.012Z,2829.38
2018-09-25T10:24:27.007Z,2868.75
2018-09-25T10:25:27.005Z,2761.88
2018-09-25T10:26:26.978Z,2840.62
2018-09-25T10:27:27.007Z,2829.38
2018-09-25T10:28:26.989Z,2677.50
2018-09-25T10:29:26.943Z,2683.12
2018-09-25T10:30:26.930Z,2885.62
2018-09-25T10:31:26.919Z,2975.62
2018-09-25T10:32:26.908Z,3015.00
2018-09-25T10:33:26.898Z,2643.75
2018-09-25T10:34:26.901Z,2581.88
2018-09-25T10:35:26.878Z,2930.62
2018-09-25T10:36:26.868Z,3065.62
2018-09-25T10:37:26.856Z,2981.25
2018-09-25T10:38:26.857Z,3003.75
2018-09-25T10:39:26.836Z,3015.00
2018-09-25T10:40:26.825Z,2986.88
2018-09-25T10:41:26.813Z,2941.88
2018-09-25T10:42:26.818Z,2835.00
2018-09-25T10:43:26.792Z,2880.00
2018-09-25T10:44:26.780Z,3054.38
2018-09-25T10:45:26.769Z,3099.38
2018-09-25T10:46:26.755Z,2964.38
2018-09-25T10:47:26.761Z,2863.12
2018-09-25T10:48:26.760Z,2919.38
2018-09-25T10:49:26.723Z,2913.75
2018-09-25T10:50:26.714Z,2379.38
2018-09-25T10:51:26.735Z,2778.75
2018-09-25T10:52:26.690Z,2885.62
2018-09-25T10:53:26.681Z,2863.12
2018-09-25T10:54:26.668Z,2925.00
2018-09-25T10:55:26.720Z,3037.50
2018-09-25T10:56:26.644Z,2958.75
2018-09-25T10:57:26.658Z,2891.25
2018-09-25T10:58:26.624Z,2936.25
2018-09-25T10:59:26.615Z,2953.12
2018-09-25T11:00:26.603Z,793.12
2018-09-25T11:01:26.591Z,697.50
2018-09-25T11:02:26.581Z,568.12
2018-09-25T11:03:26.583Z,2790.00
2018-09-25T11:04:26.574Z,523.12
2018-09-25T11:05:26.548Z,438.75
2018-09-25T11:06:26.537Z,421.88
2018-09-25T11:07:26.539Z,483.75
2018-09-25T11:08:26.515Z,3093.75
2018-09-25T11:09:26.519Z,3116.25
2018-09-25T11:10:26.493Z,2998.12
2018-09-25T11:11:26.484Z,720.00
2018-09-25T11:12:26.475Z,511.88
2018-09-25T11:13:26.460Z,534.38
2018-09-25T11:14:26.462Z,2947.50
2018-09-25T11:15:26.438Z,2863.12
2018-09-25T11:16:26.430Z,2919.38
2018-09-25T11:17:26.417Z,3099.38
2018-09-25T11:18:26.421Z,3178.12
2018-09-25T11:19:26.395Z,3133.12
2018-09-25T11:20:26.386Z,3043.12
2018-09-25T11:21:26.374Z,2992.50
2018-09-25T11:22:26.364Z,3037.50
2018-09-25T11:23:26.376Z,3054.38
2018-09-25T11:24:26.343Z,3082.50
2018-09-25T11:25:26.360Z,3110.62
2018-09-25T11:26:26.319Z,3121.88
2018-09-25T11:27:26.309Z,3105.00
2018-09-25T11:28:26.296Z,3110.62
2018-09-25T11:29:26.301Z,3060.00
2018-09-25T11:30:26.290Z,2970.00
2018-09-25T11:31:26.264Z,2885.62
2018-09-25T11:32:26.253Z,2958.75
2018-09-25T11:33:26.244Z,3003.75
2018-09-25T11:34:26.233Z,2913.75
2018-09-25T11:35:26.316Z,2998.12
2018-09-25T11:36:26.212Z,3195.00
2018-09-25T11:37:26.202Z,3273.75
2018-09-25T11:38:26.189Z,3240.00
2018-09-25T11:39:26.180Z,3189.38
2018-09-25T11:40:26.185Z,3251.25
2018-09-25T11:41:26.282Z,3307.50
2018-09-25T11:42:26.149Z,3228.75
2018-09-25T11:43:26.148Z,3228.75
2018-09-25T11:44:26.125Z,3313.12
2018-09-25T11:45:26.129Z,3268.12
2018-09-25T11:46:26.119Z,3183.75
2018-09-25T11:47:26.106Z,3251.25
2018-09-25T11:48:26.082Z,3318.75
2018-09-25T11:49:26.070Z,3296.25
2018-09-25T11:50:26.103Z,3290.62
2018-09-25T11:51:26.055Z,3285.00
2018-09-25T11:52:26.075Z,3217.50
2018-09-25T11:53:26.038Z,2446.88
2018-09-25T11:54:26.017Z,2362.50
2018-09-25T11:55:26.008Z,663.75
2018-09-25T11:56:26.002Z,652.50
2018-09-25T11:57:25.987Z,624.38
2018-09-25T11:58:26.041Z,680.62
2018-09-25T11:59:25.965Z,658.12
2018-09-25T12:00:25.952Z,624.38
2018-09-25T12:01:25.944Z,540.00
2018-09-25T12:02:25.935Z,466.88
2018-09-25T12:03:25.919Z,461.25
2018-09-25T12:04:25.931Z,568.12
2018-09-25T12:05:25.898Z,3076.88
2018-09-25T12:06:25.888Z,3015.00
2018-09-25T12:07:25.878Z,2936.25
2018-09-25T12:08:25.905Z,2829.38
2018-09-25T12:09:25.856Z,2919.38
2018-09-25T12:10:25.845Z,2829.38
2018-09-25T12:11:25.834Z,2891.25
2018-09-25T12:12:25.821Z,2835.00
2018-09-25T12:13:25.811Z,624.38
2018-09-25T12:14:25.816Z,618.75
2018-09-25T12:15:25.804Z,573.75
2018-09-25T12:16:25.779Z,556.88
2018-09-25T12:17:25.832Z,1985.62
2018-09-25T12:18:25.757Z,2705.62
2018-09-25T12:19:25.791Z,2806.88
2018-09-25T12:20:25.733Z,2795.62
2018-09-25T12:21:25.722Z,2885.62
2018-09-25T12:22:25.713Z,2840.62
2018-09-25T12:23:25.761Z,2626.88
2018-09-25T12:24:25.797Z,2548.12
2018-09-25T12:25:25.695Z,2660.62
2018-09-25T12:26:25.684Z,2722.50
2018-09-25T12:27:25.659Z,2548.12
2018-09-25T12:28:25.666Z,2610.00
2018-09-25T12:29:25.637Z,2671.88
2018-09-25T12:30:25.629Z,2722.50
2018-09-25T12:31:25.629Z,2655.00
2018-09-25T12:32:25.658Z,2570.62
2018-09-25T12:33:25.596Z,2683.12
2018-09-25T12:34:25.582Z,2660.62
2018-09-25T12:35:25.573Z,2615.62
2018-09-25T12:36:25.577Z,2643.75
2018-09-25T12:37:25.552Z,2733.75
2018-09-25T12:38:25.537Z,2525.62
2018-09-25T12:39:25.525Z,2570.62
2018-09-25T12:40:25.515Z,2677.50
2018-09-25T12:41:25.504Z,2610.00
2018-09-25T12:42:25.508Z,2615.62
2018-09-25T12:43:25.486Z,2604.38